West Bethesda, Maryland
Current Conditions -  °F | °C
As of 1:55 AM on Thursday 27 Nov 2014 (Local Time) from KGAI Reporting Station
Broken Clouds Broken Clouds  
Wind Chill: 29°   Ceiling: 6500
Heat Index: 34°   Visibility: 10mi
Dew Point: 30°   Wind: 6mph
Humidity: 87%   Direction: 280°W
Pressure: 30.05"   Gusts: NA
Location:  39.0139°N, 77.1601°W
Report Text: KGAI 270655Z 28005KT 10SM BKN065 01/M01 A3005 RMK AO1 P0001
Loading
Personal Weather Stations






























Interactive Weather Map New forecast layout! Learn more

10-Day Weather Forecast

Advertisements
Track Severe Weather on mobile